Time;durP1;ratioP1;P1;durP2;ratioP2;P2;SDS_P1;SDS_P2;PMS_P1;PMS_P2;Temp;Humidity;BMP_temperature;BMP_pressure;BME280_temperature;BME280_humidity;BME280_pressure;Samples;Min_cycle;Max_cycle;Signal;HPM_P1;HPM_P2
2021/07/18 00:00:51;;;;;;;;;;;20.80;92.20;;;;;;4405380;32;43212;-82
2021/07/18 00:03:19;;;;;;;;;;;20.80;92.20;;;;;;4419919;32;43182;-84
2021/07/18 00:05:51;;;;;;;;;;;20.70;92.20;;;;;;4407886;32;45212;-82
2021/07/18 00:08:24;;;;;;;;;;;20.70;92.20;;;;;;4407906;32;44909;-82
2021/07/18 00:10:57;;;;;;;;;;;20.70;92.20;;;;;;4407829;32;42863;-81
2021/07/18 00:13:29;;;;;;;;;;;20.70;92.20;;;;;;4407710;32;45232;-82
2021/07/18 00:16:06;;;;;;;;;;;20.70;92.20;;;;;;4408878;32;20461;-82
2021/07/18 00:18:35;;;;;;;;;;;20.70;92.20;;;;;;4407850;32;43474;-82
2021/07/18 00:21:08;;;;;;;;;;;20.70;92.20;;;;;;4407506;32;43439;-82
2021/07/18 00:23:40;;;;;;;;;;;20.70;92.10;;;;;;4421031;32;43713;-82
2021/07/18 00:26:08;;;;;;;;;;;20.70;92.20;;;;;;4406960;32;44227;-83
2021/07/18 00:28:46;;;;;;;;;;;20.70;92.10;;;;;;4407279;32;43908;-82
2021/07/18 00:31:18;;;;;;;;;;;20.60;92.10;;;;;;4407425;32;44750;-82
2021/07/18 00:33:51;;;;;;;;;;;20.60;92.10;;;;;;4407527;32;42388;-82
2021/07/18 00:36:24;;;;;;;;;;;20.60;92.10;;;;;;4421029;32;42792;-82
2021/07/18 00:39:02;;;;;;;;;;;20.60;92.10;;;;;;4407260;32;44000;-82
2021/07/18 00:41:34;;;;;;;;;;;20.60;92.00;;;;;;4407008;32;44393;-82
2021/07/18 00:44:12;;;;;;;;;;;20.50;92.00;;;;;;4407803;32;44221;-82
2021/07/18 00:46:47;;;;;;;;;;;20.60;92.00;;;;;;4407992;32;20066;-82
2021/07/18 00:49:22;;;;;;;;;;;20.50;92.00;;;;;;4407726;32;43307;-83
2021/07/18 00:51:50;;;;;;;;;;;20.50;92.00;;;;;;4407251;32;42826;-83
2021/07/18 00:54:20;;;;;;;;;;;20.50;92.00;;;;;;4407001;32;44286;-81
2021/07/18 00:56:57;;;;;;;;;;;20.50;92.00;;;;;;4420298;32;42674;-81
2021/07/18 00:59:30;;;;;;;;;;;20.50;92.00;;;;;;4406496;32;45710;-82
2021/07/18 01:02:03;;;;;;;;;;;20.50;92.00;;;;;;4406882;32;43463;-82
2021/07/18 01:04:42;;;;;;;;;;;20.50;92.00;;;;;;4407298;32;45065;-82
2021/07/18 01:07:14;;;;;;;;;;;20.50;92.00;;;;;;4406998;32;44129;-82
2021/07/18 01:09:47;;;;;;;;;;;20.40;92.00;;;;;;4420682;32;44992;-82
2021/07/18 01:12:21;;;;;;;;;;;20.40;92.00;;;;;;4407258;32;44573;-82
2021/07/18 01:14:49;;;;;;;;;;;20.40;91.90;;;;;;4420087;32;43723;-83
2021/07/18 01:17:21;;;;;;;;;;;20.40;92.00;;;;;;4420562;32;43446;-82
2021/07/18 01:19:54;;;;;;;;;;;20.40;92.00;;;;;;4407244;32;44164;-81
2021/07/18 01:22:31;;;;;;;;;;;20.40;92.00;;;;;;4420444;32;44298;-82
2021/07/18 01:25:10;;;;;;;;;;;20.40;92.00;;;;;;4407013;32;45507;-82
2021/07/18 01:27:44;;;;;;;;;;;20.30;92.00;;;;;;4420233;32;43252;-82
2021/07/18 01:30:17;;;;;;;;;;;20.30;92.00;;;;;;4406802;32;44064;-82
2021/07/18 01:32:50;;;;;;;;;;;20.30;91.90;;;;;;4406655;32;44017;-82
2021/07/18 01:35:22;;;;;;;;;;;20.30;91.90;;;;;;4406846;32;45216;-82
2021/07/18 01:37:55;;;;;;;;;;;20.30;92.00;;;;;;4406570;32;43268;-82
2021/07/18 01:40:25;;;;;;;;;;;20.30;91.90;;;;;;4406956;32;43155;-82
2021/07/18 01:42:58;;;;;;;;;;;20.30;91.90;;;;;;4406630;32;43520;-82
2021/07/18 01:45:31;;;;;;;;;;;20.30;91.90;;;;;;4406713;32;42792;-82
2021/07/18 01:48:07;;;;;;;;;;;20.20;91.90;;;;;;4407612;32;20033;-82
2021/07/18 01:50:40;;;;;;;;;;;20.20;91.90;;;;;;4406178;32;44023;-82
2021/07/18 01:53:15;;;;;;;;;;;20.20;91.90;;;;;;4406643;32;42205;-82
2021/07/18 01:55:51;;;;;;;;;;;20.20;91.90;;;;;;4406432;32;44631;-82
2021/07/18 01:58:27;;;;;;;;;;;20.20;91.90;;;;;;4406266;32;42572;-82
2021/07/18 02:01:00;;;;;;;;;;;20.20;91.90;;;;;;4420346;32;43273;-82
2021/07/18 02:03:35;;;;;;;;;;;20.20;91.90;;;;;;4406336;32;43776;-82
2021/07/18 02:06:03;;;;;;;;;;;20.10;91.90;;;;;;4419793;32;42871;-83
2021/07/18 02:08:35;;;;;;;;;;;20.10;91.90;;;;;;4420209;32;44240;-82
2021/07/18 02:11:08;;;;;;;;;;;20.10;91.90;;;;;;4406475;32;45363;-82
2021/07/18 02:13:43;;;;;;;;;;;20.10;91.90;;;;;;4406544;32;41406;-82
2021/07/18 02:16:19;;;;;;;;;;;20.10;91.90;;;;;;4406869;32;43474;-81
2021/07/18 02:18:51;;;;;;;;;;;20.10;91.90;;;;;;4420785;32;19996;-82
2021/07/18 02:21:24;;;;;;;;;;;20.10;91.90;;;;;;4420252;32;44513;-82
2021/07/18 02:23:59;;;;;;;;;;;20.00;91.90;;;;;;4406570;32;43446;-82
2021/07/18 02:26:35;;;;;;;;;;;20.00;91.90;;;;;;4406434;32;45548;-82
2021/07/18 02:29:07;;;;;;;;;;;20.00;91.90;;;;;;4405841;32;44022;-82
2021/07/18 02:31:35;;;;;;;;;;;20.00;91.90;;;;;;4406527;32;44201;-82
2021/07/18 02:34:10;;;;;;;;;;;20.00;91.90;;;;;;4406387;32;44404;-82
2021/07/18 02:36:43;;;;;;;;;;;20.00;91.90;;;;;;4406231;32;44632;-82
2021/07/18 02:39:21;;;;;;;;;;;20.00;91.90;;;;;;4419973;32;43849;-81
2021/07/18 02:41:53;;;;;;;;;;;20.00;91.90;;;;;;4419798;32;44754;-82
2021/07/18 02:44:26;;;;;;;;;;;20.00;91.90;;;;;;4405985;32;43323;-82
2021/07/18 02:46:59;;;;;;;;;;;19.90;91.90;;;;;;4405804;32;44142;-81
2021/07/18 02:49:34;;;;;;;;;;;19.90;91.90;;;;;;4407489;32;19999;-82
2021/07/18 02:52:09;;;;;;;;;;;19.90;91.90;;;;;;4408906;32;44853;-82
2021/07/18 02:54:40;;;;;;;;;;;19.90;91.90;;;;;;4409508;32;43929;-82
2021/07/18 02:57:12;;;;;;;;;;;19.90;91.90;;;;;;4422516;32;44098;-82
2021/07/18 02:59:47;;;;;;;;;;;19.90;91.90;;;;;;4422025;32;43805;-82
2021/07/18 03:02:20;;;;;;;;;;;19.90;91.90;;;;;;4405662;32;42773;-82
2021/07/18 03:04:56;;;;;;;;;;;19.80;91.90;;;;;;4406292;32;43469;-81
2021/07/18 03:07:31;;;;;;;;;;;19.80;91.90;;;;;;4406963;32;42490;-81
2021/07/18 03:10:06;;;;;;;;;;;19.80;91.90;;;;;;4407009;32;44628;-82
2021/07/18 03:12:39;;;;;;;;;;;19.80;91.90;;;;;;4405998;32;44256;-82
2021/07/18 03:15:12;;;;;;;;;;;19.80;91.90;;;;;;4407024;32;46102;-82
2021/07/18 03:17:50;;;;;;;;;;;19.80;91.90;;;;;;4407119;32;44098;-82
2021/07/18 03:20:25;;;;;;;;;;;19.80;91.90;;;;;;4405898;32;45263;-82
2021/07/18 03:22:52;;;;;;;;;;;19.80;91.90;;;;;;4406161;32;44104;-81
2021/07/18 03:25:28;;;;;;;;;;;19.80;91.90;;;;;;4405404;32;43433;-81
2021/07/18 03:28:03;;;;;;;;;;;19.70;91.90;;;;;;4406574;32;43918;-82
2021/07/18 03:30:38;;;;;;;;;;;19.70;92.20;;;;;;4405867;32;45698;-82
2021/07/18 03:33:11;;;;;;;;;;;19.70;91.90;;;;;;4405772;32;44312;-81
2021/07/18 03:35:44;;;;;;;;;;;19.70;91.90;;;;;;4405798;32;44217;-82
2021/07/18 03:38:20;;;;;;;;;;;19.70;91.90;;;;;;4406756;32;43284;-82
2021/07/18 03:40:55;;;;;;;;;;;19.70;91.90;;;;;;4407134;32;43562;-82
2021/07/18 03:43:27;;;;;;;;;;;19.70;91.90;;;;;;4405816;32;43923;-82
2021/07/18 03:45:54;;;;;;;;;;;19.70;91.90;;;;;;4405273;32;42879;-81
2021/07/18 03:48:24;;;;;;;;;;;19.60;91.80;;;;;;4405529;32;42710;-83
2021/07/18 03:50:59;;;;;;;;;;;19.60;92.10;;;;;;4407390;32;20041;-81
2021/07/18 03:53:35;;;;;;;;;;;19.70;91.70;;;;;;4405487;32;44350;-81
2021/07/18 03:56:08;;;;;;;;;;;19.60;91.70;;;;;;4406069;32;43460;-81
2021/07/18 03:58:40;;;;;;;;;;;19.60;91.60;;;;;;4405344;32;43006;-81
2021/07/18 04:01:11;;;;;;;;;;;19.60;91.60;;;;;;4406207;32;43220;-81
2021/07/18 04:03:46;;;;;;;;;;;19.50;91.60;;;;;;4421547;32;44294;-81
2021/07/18 04:06:21;;;;;;;;;;;19.50;91.60;;;;;;4407454;32;42802;-81
2021/07/18 04:08:50;;;;;;;;;;;19.50;91.60;;;;;;4407832;32;42280;-81
2021/07/18 04:11:20;;;;;;;;;;;19.50;91.60;;;;;;4421080;32;43039;-81
2021/07/18 04:13:55;;;;;;;;;;;19.50;91.50;;;;;;4407200;32;44827;-81
2021/07/18 04:16:30;;;;;;;;;;;19.40;91.60;;;;;;4407771;32;44231;-81
2021/07/18 04:19:05;;;;;;;;;;;19.40;91.50;;;;;;4421274;32;45230;-80
2021/07/18 04:21:40;;;;;;;;;;;19.50;91.50;;;;;;4408754;32;19991;-81
2021/07/18 04:24:13;;;;;;;;;;;19.40;91.60;;;;;;4407648;32;45553;-81
2021/07/18 04:26:48;;;;;;;;;;;19.40;91.60;;;;;;4407625;32;45148;-80
2021/07/18 04:29:24;;;;;;;;;;;19.40;91.60;;;;;;4407418;32;43772;-81
2021/07/18 04:31:59;;;;;;;;;;;19.40;91.60;;;;;;4407113;32;43049;-81
2021/07/18 04:34:32;;;;;;;;;;;19.40;91.60;;;;;;4407806;32;44258;-82
2021/07/18 04:37:00;;;;;;;;;;;19.30;91.60;;;;;;4407960;32;43326;-81
2021/07/18 04:39:32;;;;;;;;;;;19.30;91.70;;;;;;4407475;32;44591;-81
2021/07/18 04:42:05;;;;;;;;;;;19.30;91.70;;;;;;4421116;32;45945;-81
2021/07/18 04:44:38;;;;;;;;;;;19.30;91.70;;;;;;4407295;32;42867;-81
2021/07/18 04:47:19;;;;;;;;;;;19.20;91.70;;;;;;4420457;32;43722;-81
2021/07/18 04:49:57;;;;;;;;;;;19.20;91.70;;;;;;4407604;32;44370;-81
2021/07/18 04:52:33;;;;;;;;;;;19.20;91.80;;;;;;4421641;32;20007;-81
2021/07/18 04:55:06;;;;;;;;;;;19.20;91.80;;;;;;4407122;32;44558;-81
2021/07/18 04:57:41;;;;;;;;;;;19.20;91.80;;;;;;4407330;32;44503;-81
2021/07/18 05:00:15;;;;;;;;;;;19.20;91.80;;;;;;4407262;32;45108;-81
2021/07/18 05:02:45;;;;;;;;;;;19.20;91.90;;;;;;4406639;32;43182;-81
2021/07/18 05:05:13;;;;;;;;;;;19.20;91.90;;;;;;4407290;32;42785;-81
2021/07/18 05:07:51;;;;;;;;;;;19.20;91.90;;;;;;4406555;32;44257;-81
2021/07/18 05:10:29;;;;;;;;;;;19.20;91.90;;;;;;4406802;32;43490;-81
2021/07/18 05:13:01;;;;;;;;;;;19.20;91.90;;;;;;4406223;32;43753;-81
2021/07/18 05:15:34;;;;;;;;;;;19.20;91.90;;;;;;4406855;32;42867;-81
2021/07/18 05:18:16;;;;;;;;;;;19.10;91.90;;;;;;4420398;32;43732;-81
2021/07/18 05:20:48;;;;;;;;;;;19.20;91.90;;;;;;4420432;32;44283;-81
2021/07/18 05:23:23;;;;;;;;;;;19.20;92.00;;;;;;4421440;32;19987;-81
2021/07/18 05:25:56;;;;;;;;;;;19.10;91.90;;;;;;4406851;32;43837;-81
2021/07/18 05:28:31;;;;;;;;;;;19.10;92.00;;;;;;4406831;32;44639;-81
2021/07/18 05:30:58;;;;;;;;;;;19.10;92.10;;;;;;4420512;32;43074;-81
2021/07/18 05:33:31;;;;;;;;;;;19.10;92.10;;;;;;4406404;32;44330;-80
2021/07/18 05:36:04;;;;;;;;;;;19.10;92.20;;;;;;4405934;32;44512;-81
2021/07/18 05:38:37;;;;;;;;;;;19.10;92.20;;;;;;4420443;32;44231;-81
2021/07/18 05:41:12;;;;;;;;;;;19.10;92.30;;;;;;4406314;32;44055;-80
2021/07/18 05:43:45;;;;;;;;;;;19.10;92.30;;;;;;4406690;32;42132;-81
2021/07/18 05:46:20;;;;;;;;;;;19.10;92.40;;;;;;4420024;32;43348;-81
2021/07/18 05:48:57;;;;;;;;;;;19.10;92.50;;;;;;4407264;32;44998;-81
2021/07/18 05:51:32;;;;;;;;;;;19.10;92.50;;;;;;4420202;32;44350;-81
2021/07/18 05:54:02;;;;;;;;;;;19.10;92.60;;;;;;4420354;32;44211;-82
2021/07/18 05:56:38;;;;;;;;;;;19.10;92.60;;;;;;4406564;32;42750;-81
2021/07/18 05:59:13;;;;;;;;;;;19.10;92.70;;;;;;4420111;32;44184;-81
2021/07/18 06:01:49;;;;;;;;;;;19.20;92.80;;;;;;4419698;32;44166;-81
2021/07/18 06:04:24;;;;;;;;;;;19.10;92.80;;;;;;4419758;32;43581;-81
2021/07/18 06:06:57;;;;;;;;;;;19.10;92.80;;;;;;4420147;32;46055;-81
2021/07/18 06:09:29;;;;;;;;;;;19.10;92.90;;;;;;4406664;32;43029;-81
2021/07/18 06:12:05;;;;;;;;;;;19.10;92.90;;;;;;4406651;32;43808;-80
2021/07/18 06:14:43;;;;;;;;;;;19.10;93.00;;;;;;4419705;32;43470;-81
2021/07/18 06:17:24;;;;;;;;;;;19.20;93.10;;;;;;4406235;32;44063;-81
2021/07/18 06:19:57;;;;;;;;;;;19.10;93.10;;;;;;4405992;32;43458;-81
2021/07/18 06:22:27;;;;;;;;;;;19.10;93.10;;;;;;4420219;32;45765;-82
2021/07/18 06:25:00;;;;;;;;;;;19.10;93.20;;;;;;4407083;32;44220;-80
2021/07/18 06:27:32;;;;;;;;;;;19.20;93.30;;;;;;4409242;32;42971;-81
2021/07/18 06:30:07;;;;;;;;;;;19.20;93.30;;;;;;4422508;32;44919;-81
2021/07/18 06:32:40;;;;;;;;;;;19.20;93.40;;;;;;4409247;32;44327;-81
2021/07/18 06:35:13;;;;;;;;;;;19.20;93.50;;;;;;4409322;32;43368;-80
2021/07/18 06:37:45;;;;;;;;;;;19.20;93.50;;;;;;4422712;32;44163;-81
2021/07/18 06:40:18;;;;;;;;;;;19.20;93.50;;;;;;4422982;32;43427;-81
2021/07/18 06:42:48;;;;;;;;;;;19.20;93.60;;;;;;4409194;32;44089;-82
2021/07/18 06:45:20;;;;;;;;;;;19.20;93.60;;;;;;4408857;32;44544;-81
2021/07/18 06:47:55;;;;;;;;;;;19.20;93.60;;;;;;4408605;32;43056;-81
2021/07/18 06:50:28;;;;;;;;;;;19.20;93.60;;;;;;4422680;32;44279;-81
2021/07/18 06:53:03;;;;;;;;;;;19.20;93.70;;;;;;4422633;32;45579;-81
2021/07/18 06:55:39;;;;;;;;;;;19.20;93.70;;;;;;4410080;32;20045;-81
2021/07/18 06:58:14;;;;;;;;;;;19.20;93.70;;;;;;4409054;32;44096;-81
2021/07/18 07:00:46;;;;;;;;;;;19.20;93.70;;;;;;4422450;32;43816;-81
2021/07/18 07:03:21;;;;;;;;;;;19.30;93.80;;;;;;4421886;32;44141;-81
2021/07/18 07:06:01;;;;;;;;;;;19.30;93.80;;;;;;4409428;32;43942;-81
2021/07/18 07:08:29;;;;;;;;;;;19.30;93.80;;;;;;4408840;32;44089;-81
2021/07/18 07:11:10;;;;;;;;;;;19.30;93.90;;;;;;4408691;32;42902;-81
2021/07/18 07:13:45;;;;;;;;;;;19.30;93.90;;;;;;4408694;32;44076;-81
2021/07/18 07:16:18;;;;;;;;;;;19.30;93.90;;;;;;4421963;32;44725;-81
2021/07/18 07:18:53;;;;;;;;;;;19.30;93.90;;;;;;4422147;32;43764;-80
2021/07/18 07:21:26;;;;;;;;;;;19.30;93.90;;;;;;4422126;32;44483;-80
2021/07/18 07:23:58;;;;;;;;;;;19.30;94.00;;;;;;4408084;32;42354;-81
2021/07/18 07:26:31;;;;;;;;;;;19.30;94.00;;;;;;4423058;32;20036;-80
2021/07/18 07:29:04;;;;;;;;;;;19.30;94.00;;;;;;4421962;32;44160;-81
2021/07/18 07:31:31;;;;;;;;;;;19.30;94.00;;;;;;4408496;32;43797;-81
2021/07/18 07:34:03;;;;;;;;;;;19.30;94.00;;;;;;4422012;32;44192;-80
2021/07/18 07:36:38;;;;;;;;;;;19.30;94.00;;;;;;4408030;32;43959;-81
2021/07/18 07:39:11;;;;;;;;;;;19.30;94.00;;;;;;4408137;32;44230;-80
2021/07/18 07:41:44;;;;;;;;;;;19.30;94.00;;;;;;4408174;32;43271;-80
2021/07/18 07:44:17;;;;;;;;;;;19.30;94.00;;;;;;4408302;32;42351;-80
2021/07/18 07:46:50;;;;;;;;;;;19.30;94.00;;;;;;4421790;32;44255;-81
2021/07/18 07:49:25;;;;;;;;;;;19.40;94.10;;;;;;4408283;32;42570;-81
2021/07/18 07:52:02;;;;;;;;;;;19.40;94.10;;;;;;4407916;32;44960;-80
2021/07/18 07:54:38;;;;;;;;;;;19.40;94.10;;;;;;4408454;32;44241;-80
2021/07/18 07:57:08;;;;;;;;;;;19.40;94.10;;;;;;4421936;32;20007;-81
2021/07/18 07:59:38;;;;;;;;;;;19.40;94.10;;;;;;4408012;32;45545;-80
2021/07/18 08:02:13;;;;;;;;;;;19.40;94.10;;;;;;4408057;32;43321;-80
2021/07/18 08:04:46;;;;;;;;;;;19.40;94.10;;;;;;4421128;32;44100;-81
2021/07/18 08:07:21;;;;;;;;;;;19.40;94.10;;;;;;4407879;32;43909;-81
2021/07/18 08:09:54;;;;;;;;;;;19.40;94.10;;;;;;4421534;32;43232;-81
2021/07/18 08:12:27;;;;;;;;;;;19.40;94.20;;;;;;4421292;32;42063;-81
2021/07/18 08:15:02;;;;;;;;;;;19.40;94.20;;;;;;4421565;32;44221;-81
2021/07/18 08:17:41;;;;;;;;;;;19.40;94.20;;;;;;4407750;32;45309;-81
2021/07/18 08:20:14;;;;;;;;;;;19.40;94.20;;;;;;4407726;32;45604;-81
2021/07/18 08:22:45;;;;;;;;;;;19.40;94.30;;;;;;4421664;32;43966;-81
2021/07/18 08:25:19;;;;;;;;;;;19.40;94.30;;;;;;4420841;32;43111;-81
2021/07/18 08:27:52;;;;;;;;;;;19.50;94.30;;;;;;4408657;32;20400;-81
2021/07/18 08:30:25;;;;;;;;;;;19.50;94.30;;;;;;4407128;32;43954;-80
2021/07/18 08:32:57;;;;;;;;;;;19.50;94.30;;;;;;4407429;32;45794;-81
2021/07/18 08:35:30;;;;;;;;;;;19.50;94.30;;;;;;4421214;32;43943;-80
2021/07/18 08:38:08;;;;;;;;;;;19.50;94.30;;;;;;4421163;32;43592;-81
2021/07/18 08:40:44;;;;;;;;;;;19.50;94.30;;;;;;4407305;32;42812;-80
2021/07/18 08:43:16;;;;;;;;;;;19.50;94.30;;;;;;4420861;32;45249;-81
2021/07/18 08:45:43;;;;;;;;;;;19.50;94.30;;;;;;4420669;32;42923;-81
2021/07/18 08:48:18;;;;;;;;;;;19.50;94.40;;;;;;4420362;32;44674;-80
2021/07/18 08:50:53;;;;;;;;;;;19.60;94.30;;;;;;4407313;32;44246;-80
2021/07/18 08:53:34;;;;;;;;;;;19.60;94.30;;;;;;4407276;32;43950;-80
2021/07/18 08:56:08;;;;;;;;;;;19.60;94.30;;;;;;4407241;32;44120;-80
2021/07/18 08:58:43;;;;;;;;;;;19.60;94.30;;;;;;4407978;32;19992;-80
2021/07/18 09:01:16;;;;;;;;;;;19.60;94.30;;;;;;4407118;32;44169;-80
2021/07/18 09:03:43;;;;;;;;;;;19.60;94.30;;;;;;4406865;32;42379;-80
2021/07/18 09:06:16;;;;;;;;;;;19.70;94.30;;;;;;4406524;32;45935;-80
2021/07/18 09:08:49;;;;;;;;;;;19.70;94.30;;;;;;4420682;32;44328;-80
2021/07/18 09:11:25;;;;;;;;;;;19.70;94.40;;;;;;4420676;32;44382;-80
2021/07/18 09:14:01;;;;;;;;;;;19.70;94.30;;;;;;4420729;32;43377;-80
2021/07/18 09:16:40;;;;;;;;;;;19.70;94.30;;;;;;4420489;32;43875;-79
2021/07/18 09:19:23;;;;;;;;;;;19.70;94.30;;;;;;4406846;32;43004;-80
2021/07/18 09:22:25;;;;;;;;;;;19.70;94.30;;;;;;4406878;32;44160;-80
2021/07/18 09:25:10;;;;;;;;;;;19.70;94.30;;;;;;4406112;32;43198;-80
2021/07/18 09:27:49;;;;;;;;;;;19.70;94.30;;;;;;4420399;32;43990;-80
2021/07/18 09:30:24;;;;;;;;;;;19.70;94.30;;;;;;4421045;32;20003;-80
2021/07/18 09:33:00;;;;;;;;;;;19.80;94.30;;;;;;4406929;32;44070;-80
2021/07/18 09:35:35;;;;;;;;;;;19.80;94.60;;;;;;4406697;32;44130;-80
2021/07/18 09:38:24;;;;;;;;;;;19.80;94.30;;;;;;4406935;32;43847;-80
2021/07/18 09:41:01;;;;;;;;;;;19.80;94.30;;;;;;4420150;32;44194;-80
2021/07/18 09:43:29;;;;;;;;;;;19.80;94.30;;;;;;4420467;32;45279;-80
2021/07/18 09:46:13;;;;;;;;;;;19.80;94.20;;;;;;4406151;32;43496;-80
2021/07/18 09:48:50;;;;;;;;;;;19.80;94.30;;;;;;4404599;32;42586;-79
2021/07/18 09:51:31;;;;;;;;;;;19.90;94.30;;;;;;4406863;32;42939;-79
2021/07/18 09:54:17;;;;;;;;;;;19.90;94.30;;;;;;4406651;32;44291;-80
2021/07/18 09:56:53;;;;;;;;;;;19.90;94.30;;;;;;4420245;32;43264;-79
2021/07/18 09:59:32;;;;;;;;;;;19.90;94.30;;;;;;4407990;32;43439;-79
2021/07/18 10:02:10;;;;;;;;;;;19.90;94.30;;;;;;4422905;32;42926;-80
2021/07/18 10:04:38;;;;;;;;;;;19.90;94.30;;;;;;4422864;32;43373;-80
2021/07/18 10:07:13;;;;;;;;;;;19.90;94.30;;;;;;4422879;32;42708;-80
2021/07/18 10:09:51;;;;;;;;;;;19.90;94.30;;;;;;4409542;32;44779;-80
2021/07/18 10:12:30;;;;;;;;;;;19.90;94.20;;;;;;4409940;32;44285;-79
2021/07/18 10:15:09;;;;;;;;;;;20.00;94.30;;;;;;4422709;32;44144;-79
2021/07/18 10:17:41;;;;;;;;;;;20.00;94.30;;;;;;4409488;32;42838;-79
2021/07/18 10:20:19;;;;;;;;;;;20.00;94.20;;;;;;4409313;32;43500;-80
2021/07/18 10:22:52;;;;;;;;;;;20.00;94.20;;;;;;4408867;32;44088;-80
2021/07/18 10:25:30;;;;;;;;;;;20.00;94.20;;;;;;4423041;32;43746;-79
2021/07/18 10:27:59;;;;;;;;;;;20.00;94.20;;;;;;4422936;32;43707;-80
2021/07/18 10:30:34;;;;;;;;;;;20.10;94.30;;;;;;4408878;32;44290;-79
2021/07/18 10:33:10;;;;;;;;;;;20.10;94.30;;;;;;4423632;32;20060;-79
2021/07/18 10:35:48;;;;;;;;;;;20.10;94.60;;;;;;4422907;32;42845;-80
2021/07/18 10:38:24;;;;;;;;;;;20.10;94.30;;;;;;4422688;32;44138;-80
2021/07/18 10:41:01;;;;;;;;;;;20.10;94.20;;;;;;4422324;32;42791;-79
2021/07/18 10:43:40;;;;;;;;;;;20.20;94.30;;;;;;4409058;32;44282;-79
2021/07/18 10:46:14;;;;;;;;;;;20.20;94.30;;;;;;4409139;32;45360;-79
2021/07/18 10:49:01;;;;;;;;;;;20.20;94.30;;;;;;4422680;32;43881;-80
2021/07/18 10:51:43;;;;;;;;;;;20.30;94.30;;;;;;4408494;32;44088;-79
2021/07/18 10:54:12;;;;;;;;;;;20.20;94.30;;;;;;4422233;32;44053;-80
2021/07/18 10:56:51;;;;;;;;;;;20.30;94.30;;;;;;4408955;32;43935;-80
2021/07/18 10:59:42;;;;;;;;;;;20.30;94.20;;;;;;4408796;32;44270;-79
2021/07/18 11:02:16;;;;;;;;;;;20.30;94.20;;;;;;4422199;32;45218;-80
2021/07/18 11:04:57;;;;;;;;;;;20.40;94.20;;;;;;4409696;32;20000;-80
2021/07/18 11:07:33;;;;;;;;;;;20.40;94.20;;;;;;4422323;32;44136;-80
2021/07/18 11:10:12;;;;;;;;;;;20.40;94.20;;;;;;4407973;32;43407;-80
2021/07/18 11:12:49;;;;;;;;;;;20.40;94.20;;;;;;4422327;32;45057;-80
2021/07/18 11:15:18;;;;;;;;;;;20.40;94.20;;;;;;4408585;32;43065;-80
2021/07/18 11:18:07;;;;;;;;;;;20.50;94.20;;;;;;4421657;32;44364;-79
2021/07/18 11:20:51;;;;;;;;;;;20.50;94.20;;;;;;4422234;32;44266;-79
2021/07/18 11:23:46;;;;;;;;;;;20.50;94.20;;;;;;4422174;32;44463;-80
2021/07/18 11:26:22;;;;;;;;;;;20.50;94.20;;;;;;4408132;32;43492;-80
2021/07/18 11:28:57;;;;;;;;;;;20.60;94.20;;;;;;4408487;32;44287;-80
2021/07/18 11:31:45;;;;;;;;;;;20.60;94.20;;;;;;4408807;32;44076;-79
2021/07/18 11:34:18;;;;;;;;;;;20.60;94.20;;;;;;4408476;32;43179;-79
2021/07/18 11:36:54;;;;;;;;;;;20.60;94.20;;;;;;4408260;32;42936;-80
2021/07/18 11:39:27;;;;;;;;;;;20.70;94.20;;;;;;4407923;32;42147;-79
2021/07/18 11:41:55;;;;;;;;;;;20.70;94.20;;;;;;4421687;32;43831;-80
2021/07/18 11:44:32;;;;;;;;;;;20.70;94.20;;;;;;4408473;32;43246;-79
2021/07/18 11:47:07;;;;;;;;;;;20.80;94.20;;;;;;4421870;32;43489;-80
2021/07/18 11:49:41;;;;;;;;;;;20.80;94.20;;;;;;4408140;32;45604;-80
2021/07/18 11:52:19;;;;;;;;;;;20.80;94.20;;;;;;4421934;32;43251;-79
2021/07/18 11:54:53;;;;;;;;;;;20.80;94.20;;;;;;4421826;32;43980;-79
2021/07/18 11:57:29;;;;;;;;;;;20.80;94.20;;;;;;4408236;32;44195;-79
2021/07/18 12:00:07;;;;;;;;;;;20.90;94.20;;;;;;4421575;32;43511;-80
2021/07/18 12:02:39;;;;;;;;;;;20.90;94.20;;;;;;4407635;32;43281;-79
2021/07/18 12:05:10;;;;;;;;;;;20.90;94.10;;;;;;4408105;32;45643;-80
2021/07/18 12:07:42;;;;;;;;;;;20.90;94.10;;;;;;4421589;32;45212;-80
2021/07/18 12:10:21;;;;;;;;;;;20.90;94.10;;;;;;4407716;32;43015;-80
2021/07/18 12:12:51;;;;;;;;;;;21.00;94.10;;;;;;4421485;32;43080;-79
2021/07/18 12:15:23;;;;;;;;;;;21.00;94.10;;;;;;4407498;32;42724;-80
2021/07/18 12:18:00;;;;;;;;;;;21.00;94.10;;;;;;4407590;32;44245;-79
2021/07/18 12:20:36;;;;;;;;;;;21.10;94.10;;;;;;4421341;32;42329;-79
2021/07/18 12:23:13;;;;;;;;;;;21.10;94.10;;;;;;4407813;32;44251;-79
2021/07/18 12:25:40;;;;;;;;;;;21.10;94.10;;;;;;4421151;32;44395;-81
2021/07/18 12:28:18;;;;;;;;;;;21.20;94.10;;;;;;4421051;32;42599;-80
2021/07/18 12:30:54;;;;;;;;;;;21.20;94.10;;;;;;4407081;32;44187;-80
2021/07/18 12:33:32;;;;;;;;;;;21.20;94.10;;;;;;4421154;32;43940;-80
2021/07/18 12:36:09;;;;;;;;;;;21.20;94.00;;;;;;4421117;32;46049;-80
2021/07/18 12:38:44;;;;;;;;;;;21.20;94.10;;;;;;4421859;32;20003;-79
2021/07/18 12:41:17;;;;;;;;;;;21.30;94.10;;;;;;4407214;32;42654;-80
2021/07/18 12:43:52;;;;;;;;;;;21.30;94.10;;;;;;4406951;32;44098;-80
2021/07/18 12:46:28;;;;;;;;;;;21.30;94.10;;;;;;4407807;32;42930;-80
2021/07/18 12:49:08;;;;;;;;;;;21.30;94.10;;;;;;4421088;32;42830;-79
2021/07/18 12:51:44;;;;;;;;;;;21.40;94.10;;;;;;4420857;32;43376;-80
2021/07/18 12:54:14;;;;;;;;;;;21.40;94.00;;;;;;4420784;32;43686;-83
2021/07/18 12:56:58;;;;;;;;;;;21.40;94.00;;;;;;4406717;32;43759;-82
2021/07/18 12:59:39;;;;;;;;;;;21.50;94.00;;;;;;4420517;32;42949;-82
2021/07/18 13:02:20;;;;;;;;;;;21.50;94.00;;;;;;4420470;32;43189;-83
2021/07/18 13:05:01;;;;;;;;;;;21.60;94.00;;;;;;4420711;32;43592;-82
2021/07/18 13:07:34;;;;;;;;;;;21.60;94.00;;;;;;4420367;32;43036;-82
2021/07/18 13:10:25;;;;;;;;;;;21.60;94.00;;;;;;4420686;32;44694;-83
2021/07/18 13:12:59;;;;;;;;;;;21.60;94.00;;;;;;4420595;32;44527;-83
2021/07/18 13:15:29;;;;;;;;;;;21.60;94.00;;;;;;4420268;32;43211;-82
2021/07/18 13:18:17;;;;;;;;;;;21.70;93.90;;;;;;4420081;32;44341;-82
2021/07/18 13:20:49;;;;;;;;;;;21.70;93.90;;;;;;4420443;32;43242;-82
2021/07/18 13:23:28;;;;;;;;;;;21.70;93.90;;;;;;4420591;32;43872;-82
2021/07/18 13:26:04;;;;;;;;;;;21.80;93.90;;;;;;4406836;32;45421;-82
2021/07/18 13:28:42;;;;;;;;;;;21.80;93.90;;;;;;4419991;32;42883;-82
2021/07/18 13:31:22;;;;;;;;;;;21.80;93.90;;;;;;4406859;32;44211;-83
2021/07/18 13:34:01;;;;;;;;;;;21.90;93.90;;;;;;4420072;32;44122;-83
2021/07/18 13:36:33;;;;;;;;;;;21.90;93.90;;;;;;4420939;32;42762;-83
2021/07/18 13:39:16;;;;;;;;;;;21.90;93.90;;;;;;4406671;32;43553;-82
2021/07/18 13:42:01;;;;;;;;;;;21.90;93.90;;;;;;4420348;32;43350;-82
2021/07/18 13:44:41;;;;;;;;;;;22.00;93.90;;;;;;4406820;32;45360;-83
2021/07/18 13:47:20;;;;;;;;;;;22.00;93.80;;;;;;4420442;32;43009;-82
2021/07/18 13:49:55;;;;;;;;;;;22.10;93.90;;;;;;4420119;32;43115;-82
2021/07/18 13:52:30;;;;;;;;;;;22.10;93.80;;;;;;4406565;32;44142;-84
2021/07/18 13:55:11;;;;;;;;;;;22.10;93.80;;;;;;4419765;32;43574;-82
2021/07/18 13:57:43;;;;;;;;;;;22.20;93.80;;;;;;4420462;32;43342;-83
2021/07/18 14:00:22;;;;;;;;;;;22.20;93.80;;;;;;4420120;32;44051;-83
2021/07/18 14:03:05;;;;;;;;;;;22.20;93.80;;;;;;4406473;32;43984;-83
2021/07/18 14:05:33;;;;;;;;;;;22.20;93.80;;;;;;4406784;32;44105;-83
2021/07/18 14:08:12;;;;;;;;;;;22.30;93.80;;;;;;4406140;32;43778;-83
2021/07/18 14:10:48;;;;;;;;;;;22.30;93.80;;;;;;4406036;32;45063;-84
2021/07/18 14:13:29;;;;;;;;;;;22.30;93.80;;;;;;4407560;32;20041;-83
2021/07/18 14:16:01;;;;;;;;;;;22.40;93.80;;;;;;4406495;32;44375;-83
2021/07/18 14:18:33;;;;;;;;;;;22.40;93.70;;;;;;4406240;32;42968;-83
2021/07/18 14:21:04;;;;;;;;;;;22.40;93.70;;;;;;4406127;32;43063;-84
2021/07/18 14:23:39;;;;;;;;;;;22.50;93.80;;;;;;4406433;32;44378;-83
2021/07/18 14:26:15;;;;;;;;;;;22.50;93.70;;;;;;4406404;32;44096;-84
2021/07/18 14:28:53;;;;;;;;;;;22.50;93.70;;;;;;4420115;32;45072;-83
2021/07/18 14:31:20;;;;;;;;;;;22.50;93.70;;;;;;4406694;32;44413;-85
2021/07/18 14:33:59;;;;;;;;;;;22.60;93.70;;;;;;4419896;32;43450;-84
2021/07/18 14:36:37;;;;;;;;;;;22.60;93.70;;;;;;4406312;32;44105;-83
2021/07/18 14:39:12;;;;;;;;;;;22.60;93.60;;;;;;4406009;32;42950;-84
2021/07/18 14:41:44;;;;;;;;;;;22.70;93.70;;;;;;4419760;32;43172;-83
2021/07/18 14:44:19;;;;;;;;;;;22.70;93.60;;;;;;4420240;32;36059;-83
2021/07/18 14:46:55;;;;;;;;;;;22.80;93.70;;;;;;4408519;32;44094;-84
2021/07/18 14:49:30;;;;;;;;;;;22.80;93.60;;;;;;4409155;32;42051;-84
2021/07/18 14:52:13;;;;;;;;;;;22.80;93.50;;;;;;4408751;32;44798;-85
2021/07/18 14:54:45;;;;;;;;;;;22.80;93.50;;;;;;4422302;32;42881;-84
2021/07/18 14:57:12;;;;;;;;;;;22.80;93.40;;;;;;4422587;32;45785;-85
2021/07/18 14:59:43;;;;;;;;;;;22.80;93.40;;;;;;4408404;32;43050;-84